Terminal Aerodrome Forecast
Issued by NWS

Home | Current Version | Previous Version | Text Only | Print | Product List | Glossary On
Versions: 1 2 3 4 5 6 7 8 9 10 11 12 13 14 15 16
000
FTUS45 KTFX 071735
TAFHLN
TAF
KHLN 071735Z 0718/0818 33011KT P6SM BKN120
     FM072000 01010KT P6SM VCTS SCT070CB BKN100
      TEMPO 0722/0802 VRB20G30KT -TSRA BKN050CB
     FM080200 36007KT P6SM BKN120
     FM080800 29005KT P6SM SCT080=

USA.gov is the U.S. government's official web portal to all federal, state and local government web resources and services.